Time;durP1;ratioP1;P1;durP2;ratioP2;P2;SDS_P1;SDS_P2;PMS_P1;PMS_P2;Temp;Humidity;BMP_temperature;BMP_pressure;BME280_temperature;BME280_humidity;BME280_pressure;Samples;Min_cycle;Max_cycle;Signal;HPM_P1;HPM_P2
2023/09/21 00:01:34;;;;;;;3.88;2.00;;;24.20;99.90;;;;;;5117855;27;20043;-83
2023/09/21 00:04:01;;;;;;;3.65;2.38;;;24.20;99.90;;;;;;5121416;27;20062;-83
2023/09/21 00:06:27;;;;;;;3.08;2.22;;;24.20;99.90;;;;;;5069469;27;20068;-82
2023/09/21 00:08:53;;;;;;;4.40;2.13;;;24.20;99.90;;;;;;5116774;27;20042;-79
2023/09/21 00:11:26;;;;;;;2.22;1.63;;;24.10;99.90;;;;;;5092200;27;20063;-83
2023/09/21 00:13:52;;;;;;;3.30;1.80;;;24.20;99.90;;;;;;5081112;28;20039;-85
2023/09/21 00:16:18;;;;;;;3.65;2.00;;;24.20;99.90;;;;;;5093763;27;20031;-84
2023/09/21 00:18:45;;;;;;;2.78;1.92;;;24.20;99.90;;;;;;5099138;27;20050;-83
2023/09/21 00:21:12;;;;;;;2.25;2.00;;;24.20;99.90;;;;;;5111587;27;20129;-83
2023/09/21 00:23:38;;;;;;;3.97;2.17;;;24.30;99.90;;;;;;5109924;27;20053;-84
2023/09/21 00:26:04;;;;;;;3.33;1.90;;;24.30;99.90;;;;;;5150821;27;20038;-83
2023/09/21 00:28:31;;;;;;;3.67;2.05;;;24.20;99.90;;;;;;5134672;27;20494;-83
2023/09/21 00:30:58;;;;;;;4.43;2.33;;;24.30;99.90;;;;;;5121843;27;20080;-81
2023/09/21 00:33:25;;;;;;;4.40;2.17;;;24.30;99.90;;;;;;5108165;27;20041;-81
2023/09/21 00:35:51;;;;;;;5.10;2.03;;;24.20;99.90;;;;;;5129691;27;20039;-84
2023/09/21 00:38:18;;;;;;;4.32;1.90;;;24.30;99.90;;;;;;5095823;28;20031;-81
2023/09/21 00:40:44;;;;;;;3.25;1.88;;;24.40;99.90;;;;;;5099030;28;20143;-84
2023/09/21 00:43:20;;;;;;;6.88;1.98;;;24.30;99.90;;;;;;5095696;28;20035;-82
2023/09/21 00:45:50;;;;;;;4.25;2.53;;;24.40;99.90;;;;;;5100132;27;20035;-82
2023/09/21 00:48:22;;;;;;;4.38;1.90;;;24.40;99.90;;;;;;5109105;27;20130;-82
2023/09/21 00:50:49;;;;;;;3.42;2.25;;;24.50;99.90;;;;;;5095911;28;20168;-81
2023/09/21 00:53:15;;;;;;;3.30;2.33;;;24.40;99.90;;;;;;5124386;27;20045;-83
2023/09/21 00:55:48;;;;;;;3.05;1.92;;;24.50;99.90;;;;;;5108551;27;20039;-83
2023/09/21 00:58:14;;;;;;;5.32;2.20;;;24.50;99.90;;;;;;5099515;27;20607;-83
2023/09/21 01:00:41;;;;;;;4.78;2.03;;;24.60;99.90;;;;;;5102250;27;20043;-83
2023/09/21 01:03:17;;;;;;;2.20;1.77;;;24.70;99.90;;;;;;5096479;27;20042;-80
2023/09/21 01:05:45;;;;;;;3.05;2.17;;;24.70;99.90;;;;;;5104275;28;20043;-83
2023/09/21 01:08:18;;;;;;;2.60;2.08;;;24.70;99.90;;;;;;5148787;27;20474;-81
2023/09/21 01:10:49;;;;;;;2.92;2.13;;;24.60;99.90;;;;;;5114807;27;20040;-81
2023/09/21 01:13:16;;;;;;;5.45;2.40;;;24.70;99.90;;;;;;5122794;27;20075;-83
2023/09/21 01:15:46;;;;;;;3.20;1.92;;;24.60;99.90;;;;;;5115314;27;20609;-83
2023/09/21 01:18:16;;;;;;;3.85;2.22;;;24.60;99.90;;;;;;5104199;27;20436;-82
2023/09/21 01:20:42;;;;;;;2.75;2.10;;;24.50;99.90;;;;;;5102524;27;20093;-83
2023/09/21 01:23:12;;;;;;;4.00;2.25;;;24.50;99.90;;;;;;5116414;27;20040;-81
2023/09/21 01:25:41;;;;;;;3.95;2.30;;;24.40;99.90;;;;;;5113724;27;20125;-81
2023/09/21 01:28:16;;;;;;;3.72;2.38;;;24.40;99.90;;;;;;5123359;27;20039;-84
2023/09/21 01:30:43;;;;;;;3.83;2.47;;;24.30;99.90;;;;;;5102340;27;20040;-85
2023/09/21 01:33:13;;;;;;;2.85;1.80;;;24.30;99.90;;;;;;5113846;27;20408;-83
2023/09/21 01:35:40;;;;;;;4.35;2.22;;;24.30;99.90;;;;;;5096607;27;20126;-81
2023/09/21 01:38:06;;;;;;;7.70;2.10;;;24.20;99.90;;;;;;5131087;27;20039;-82
2023/09/21 01:40:34;;;;;;;2.60;1.90;;;24.20;99.90;;;;;;5108726;27;20047;-82
2023/09/21 01:43:08;;;;;;;2.30;1.75;;;24.20;99.90;;;;;;5096608;28;20051;-83
2023/09/21 01:45:40;;;;;;;1.77;1.42;;;24.20;99.90;;;;;;5104478;28;20047;-82
2023/09/21 01:48:09;;;;;;;4.10;2.40;;;24.10;99.90;;;;;;5101829;27;20039;-81
2023/09/21 01:50:44;;;;;;;5.15;2.40;;;24.10;99.90;;;;;;5115843;27;20427;-85
2023/09/21 01:53:11;;;;;;;3.65;2.03;;;24.10;99.90;;;;;;5110472;27;20789;-81
2023/09/21 01:55:40;;;;;;;5.18;2.85;;;24.10;99.90;;;;;;5093776;28;20096;-80
2023/09/21 01:58:09;;;;;;;3.42;2.08;;;24.10;99.90;;;;;;5104505;27;20118;-82
2023/09/21 02:00:39;;;;;;;4.72;2.08;;;24.00;99.90;;;;;;5117201;27;20248;-80
2023/09/21 02:03:09;;;;;;;4.20;2.45;;;24.10;99.90;;;;;;5139717;27;20070;-85
2023/09/21 02:05:36;;;;;;;4.15;2.25;;;24.10;99.90;;;;;;5132730;27;20062;-84
2023/09/21 02:08:06;;;;;;;4.18;2.30;;;24.10;99.90;;;;;;5119663;27;20134;-84
2023/09/21 02:10:36;;;;;;;3.75;1.90;;;24.10;99.90;;;;;;5116608;27;20118;-84
2023/09/21 02:13:06;;;;;;;3.75;1.92;;;24.00;99.90;;;;;;5119656;27;20043;-84
2023/09/21 02:15:43;;;;;;;3.25;2.10;;;24.00;99.90;;;;;;5117572;27;20042;-85
2023/09/21 02:18:10;;;;;;;3.70;2.17;;;24.00;99.90;;;;;;5094473;28;20210;-86
2023/09/21 02:20:44;;;;;;;2.33;1.70;;;23.90;99.90;;;;;;5121708;27;20066;-81
2023/09/21 02:23:11;;;;;;;3.97;2.15;;;23.90;99.90;;;;;;5110722;27;20133;-81
2023/09/21 02:25:41;;;;;;;3.78;2.38;;;24.00;99.90;;;;;;5105669;27;21919;-85
2023/09/21 02:28:11;;;;;;;3.88;2.38;;;24.00;99.90;;;;;;5084532;27;20508;-88
2023/09/21 02:30:48;;;;;;;3.22;2.05;;;24.00;99.90;;;;;;5122848;27;20035;-84
2023/09/21 02:33:17;;;;;;;2.67;1.92;;;23.90;99.90;;;;;;5119595;27;20036;-85
2023/09/21 02:35:46;;;;;;;3.33;1.98;;;23.90;99.90;;;;;;5120786;27;20134;-83
2023/09/21 02:38:12;;;;;;;3.10;1.95;;;23.90;99.90;;;;;;5083210;27;20035;-84
2023/09/21 02:40:40;;;;;;;3.22;2.03;;;23.90;99.90;;;;;;5099622;27;20042;-83
2023/09/21 02:43:09;;;;;;;5.05;2.10;;;23.90;99.90;;;;;;5071676;27;20050;-88
2023/09/21 02:45:36;;;;;;;4.70;2.60;;;23.90;99.90;;;;;;5108263;27;20039;-84
2023/09/21 02:48:03;;;;;;;3.67;2.17;;;23.90;99.90;;;;;;5096606;27;20039;-81
2023/09/21 02:50:30;;;;;;;3.58;2.25;;;23.90;99.90;;;;;;5117551;27;20040;-81
2023/09/21 02:52:57;;;;;;;6.15;2.30;;;23.90;99.90;;;;;;5077473;28;20039;-83
2023/09/21 02:55:26;;;;;;;4.35;2.10;;;23.80;99.90;;;;;;5121016;27;20391;-84
2023/09/21 02:58:10;;;;;;;5.80;2.45;;;23.80;99.90;;;;;;5094030;27;20069;-85
2023/09/21 03:00:45;;;;;;;4.10;2.30;;;24.00;99.90;;;;;;5123239;27;20089;-83
2023/09/21 03:03:12;;;;;;;3.25;1.95;;;24.00;99.90;;;;;;5106092;27;20487;-82
2023/09/21 03:05:46;;;;;;;5.45;1.90;;;24.20;99.90;;;;;;5099780;27;20054;-81
2023/09/21 03:08:15;;;;;;;3.67;1.90;;;24.20;99.90;;;;;;5089205;27;20488;-82
2023/09/21 03:10:45;;;;;;;3.78;1.95;;;24.40;99.90;;;;;;5107242;27;20155;-79
2023/09/21 03:13:17;;;;;;;3.90;2.20;;;24.50;99.90;;;;;;5117210;27;20038;-81
2023/09/21 03:15:53;;;;;;;2.20;1.60;;;24.50;99.90;;;;;;5119791;27;20046;-80
2023/09/21 03:18:20;;;;;;;3.13;1.80;;;24.70;99.90;;;;;;5120753;27;20035;-82
2023/09/21 03:20:48;;;;;;;2.63;1.90;;;24.70;99.90;;;;;;5105467;27;20082;-79
2023/09/21 03:23:15;;;;;;;3.22;1.92;;;24.70;99.90;;;;;;5101756;27;20035;-83
2023/09/21 03:25:45;;;;;;;4.90;2.15;;;24.80;99.90;;;;;;5105386;27;20724;-82
2023/09/21 03:28:24;;;;;;;3.72;1.98;;;24.80;99.90;;;;;;5101629;27;20046;-82
2023/09/21 03:30:56;;;;;;;4.70;1.90;;;24.80;99.90;;;;;;5096365;27;21680;-83
2023/09/21 03:33:23;;;;;;;3.53;2.10;;;24.90;99.90;;;;;;5115322;27;20054;-85
2023/09/21 03:35:49;;;;;;;4.82;2.10;;;24.90;99.90;;;;;;5113128;27;20031;-88
2023/09/21 03:38:18;;;;;;;5.28;2.08;;;24.30;99.90;;;;;;5108610;27;20035;-83
2023/09/21 03:40:45;;;;;;;3.55;1.83;;;24.70;99.90;;;;;;5106758;27;20135;-84
2023/09/21 03:43:15;;;;;;;3.63;2.08;;;24.70;99.90;;;;;;5109522;27;20042;-85
2023/09/21 03:45:42;;;;;;;3.65;1.88;;;24.80;99.90;;;;;;5098050;27;20424;-80
2023/09/21 03:48:09;;;;;;;2.97;1.60;;;24.70;99.90;;;;;;5091597;27;20092;-80
2023/09/21 03:50:35;;;;;;;2.95;2.25;;;24.70;99.90;;;;;;5102891;27;20043;-82
2023/09/21 03:53:11;;;;;;;2.42;1.80;;;24.60;99.90;;;;;;5102359;27;20039;-80
2023/09/21 03:55:38;;;;;;;2.75;1.90;;;24.60;99.90;;;;;;5118797;27;20045;-84
2023/09/21 03:58:05;;;;;;;2.97;1.88;;;24.60;99.90;;;;;;5095712;28;20796;-81
2023/09/21 04:03:11;;;;;;;2.90;1.88;;;24.50;99.90;;;;;;5123630;27;20069;-81
2023/09/21 04:05:42;;;;;;;3.20;1.95;;;24.50;99.90;;;;;;5088514;28;20035;-87
2023/09/21 04:08:08;;;;;;;2.90;1.80;;;24.40;99.90;;;;;;5093721;27;20073;-86
2023/09/21 04:10:35;;;;;;;3.17;2.22;;;24.40;99.90;;;;;;5112922;27;20659;-85
2023/09/21 04:13:01;;;;;;;4.05;1.80;;;24.40;99.90;;;;;;5080617;27;20043;-82
2023/09/21 04:15:30;;;;;;;2.95;2.00;;;24.40;99.90;;;;;;5104027;28;20043;-84
2023/09/21 04:17:57;;;;;;;4.65;2.08;;;24.40;99.90;;;;;;5095069;27;20039;-79
2023/09/21 04:20:23;;;;;;;3.45;2.08;;;24.40;99.90;;;;;;5090570;27;20520;-81
2023/09/21 04:22:52;;;;;;;2.15;1.65;;;24.40;99.90;;;;;;5102562;27;20046;-84
2023/09/21 04:25:18;;;;;;;2.70;2.10;;;24.50;99.90;;;;;;5101813;27;20043;-81
2023/09/21 04:27:55;;;;;;;2.78;1.85;;;24.40;99.90;;;;;;5085376;27;20070;-87
2023/09/21 04:30:24;;;;;;;3.70;1.83;;;24.40;99.90;;;;;;5116750;27;20162;-79
2023/09/21 04:32:51;;;;;;;4.47;2.10;;;24.40;99.90;;;;;;5106870;27;20035;-82
2023/09/21 04:35:18;;;;;;;3.08;2.30;;;24.60;99.90;;;;;;5095046;27;20058;-84
2023/09/21 04:37:45;;;;;;;4.43;2.22;;;24.40;99.90;;;;;;5121175;27;20065;-82
2023/09/21 04:40:12;;;;;;;3.08;2.08;;;24.40;99.90;;;;;;5104734;28;20036;-83
2023/09/21 04:42:40;;;;;;;2.80;2.10;;;24.40;99.90;;;;;;5088099;28;20035;-82
2023/09/21 04:45:11;;;;;;;3.42;2.10;;;24.40;99.90;;;;;;5117600;27;20122;-82
2023/09/21 04:47:38;;;;;;;3.17;1.90;;;24.30;99.90;;;;;;5100597;27;20044;-81
2023/09/21 04:50:05;;;;;;;2.60;1.90;;;24.30;99.90;;;;;;5096774;28;20044;-81
2023/09/21 04:52:32;;;;;;;3.75;1.90;;;24.30;99.90;;;;;;5097202;27;20043;-81
2023/09/21 04:54:59;;;;;;;2.80;2.08;;;24.30;99.90;;;;;;5122576;28;20059;-84
2023/09/21 04:57:27;;;;;;;6.05;2.25;;;24.20;99.90;;;;;;5102454;27;20118;-83
2023/09/21 04:59:54;;;;;;;7.57;2.45;;;24.20;99.90;;;;;;5121834;28;20051;-82
2023/09/21 05:02:23;;;;;;;3.53;1.90;;;24.10;99.90;;;;;;5096721;28;20098;-84
2023/09/21 05:04:50;;;;;;;3.25;1.70;;;24.00;99.90;;;;;;5067011;28;20031;-84
2023/09/21 05:07:22;;;;;;;3.75;2.22;;;24.00;99.90;;;;;;5089357;28;20313;-82
2023/09/21 05:09:51;;;;;;;3.63;2.20;;;23.90;99.90;;;;;;5065428;28;20047;-84
2023/09/21 05:12:18;;;;;;;2.50;2.00;;;23.80;99.90;;;;;;5100371;28;20035;-82
2023/09/21 05:14:48;;;;;;;3.72;1.95;;;23.60;99.90;;;;;;5096125;28;20570;-83
2023/09/21 05:17:17;;;;;;;3.10;2.13;;;23.60;99.90;;;;;;5100857;28;20086;-83
2023/09/21 05:19:44;;;;;;;3.83;2.30;;;23.50;99.90;;;;;;5116111;28;20563;-82
2023/09/21 05:22:11;;;;;;;5.45;2.42;;;23.40;99.90;;;;;;5111942;28;20080;-84
2023/09/21 05:24:37;;;;;;;3.15;2.20;;;23.50;99.90;;;;;;5095862;27;20674;-85
2023/09/21 05:27:03;;;;;;;3.90;2.10;;;23.50;99.90;;;;;;5119669;27;20038;-85
2023/09/21 05:29:30;;;;;;;3.67;2.03;;;23.50;99.90;;;;;;5096012;27;20043;-83
2023/09/21 05:31:58;;;;;;;5.57;2.67;;;23.50;99.90;;;;;;5120104;27;20036;-83
2023/09/21 05:34:27;;;;;;;3.25;1.98;;;23.60;99.90;;;;;;5115489;28;20138;-85
2023/09/21 05:36:54;;;;;;;2.67;2.03;;;23.60;99.90;;;;;;5098023;28;20031;-85
2023/09/21 05:39:20;;;;;;;2.63;2.03;;;23.80;99.90;;;;;;5088668;27;20045;-83
2023/09/21 05:41:47;;;;;;;3.45;2.20;;;23.90;99.90;;;;;;5106997;27;20126;-90
2023/09/21 05:44:15;;;;;;;3.53;2.00;;;23.70;99.90;;;;;;5101346;27;20475;-91
2023/09/21 05:46:44;;;;;;;3.05;2.13;;;23.80;99.90;;;;;;5107446;27;20044;-91
2023/09/21 05:49:11;;;;;;;3.67;2.40;;;23.80;99.90;;;;;;5089843;27;20512;-83
2023/09/21 05:51:39;;;;;;;3.90;2.15;;;23.90;99.90;;;;;;5102036;27;20078;-80
2023/09/21 05:54:05;;;;;;;2.40;2.13;;;23.90;99.90;;;;;;5101079;27;20924;-80
2023/09/21 05:56:33;;;;;;;3.03;2.15;;;24.00;99.90;;;;;;5106635;27;20055;-84
2023/09/21 05:59:03;;;;;;;3.33;2.10;;;24.10;99.90;;;;;;5088795;27;20036;-83
2023/09/21 06:01:31;;;;;;;2.53;2.10;;;24.10;99.90;;;;;;5110311;27;20146;-81
2023/09/21 06:03:59;;;;;;;3.30;2.00;;;24.10;99.90;;;;;;5090013;27;20044;-85
2023/09/21 06:06:28;;;;;;;2.50;1.77;;;24.20;99.90;;;;;;5098790;27;20039;-82
2023/09/21 06:08:57;;;;;;;3.72;2.03;;;24.30;99.90;;;;;;5107485;27;20067;-82
2023/09/21 06:11:26;;;;;;;3.25;1.90;;;24.40;99.90;;;;;;5121889;27;20044;-83
2023/09/21 06:13:54;;;;;;;3.30;2.05;;;24.50;99.90;;;;;;5070641;27;20043;-82
2023/09/21 06:16:20;;;;;;;3.28;2.28;;;24.50;99.90;;;;;;5119151;27;20055;-81
2023/09/21 06:18:48;;;;;;;2.60;2.17;;;24.60;99.90;;;;;;5088687;27;20041;-81
2023/09/21 06:21:14;;;;;;;2.47;1.85;;;24.70;99.90;;;;;;5093726;27;20032;-83
2023/09/21 06:23:41;;;;;;;2.72;2.10;;;24.80;99.90;;;;;;5075858;27;20043;-84
2023/09/21 06:26:07;;;;;;;5.03;1.90;;;24.70;99.90;;;;;;5104508;27;20076;-81
2023/09/21 06:28:33;;;;;;;2.53;1.80;;;24.90;99.90;;;;;;5084792;27;20035;-83
2023/09/21 06:31:04;;;;;;;3.28;1.98;;;25.00;99.90;;;;;;5088423;28;20035;-80
2023/09/21 06:33:32;;;;;;;3.13;1.63;;;24.90;99.90;;;;;;5106261;27;20112;-80
2023/09/21 06:35:58;;;;;;;3.45;2.00;;;25.00;99.90;;;;;;5087520;27;20080;-81
2023/09/21 06:38:24;;;;;;;2.70;1.90;;;25.00;99.90;;;;;;5097303;27;20039;-86
2023/09/21 06:40:50;;;;;;;2.20;1.70;;;25.00;99.90;;;;;;5097749;27;20096;-82
2023/09/21 06:43:15;;;;;;;2.63;1.80;;;25.10;99.90;;;;;;5111138;27;20123;-83
2023/09/21 06:45:41;;;;;;;2.30;1.80;;;25.10;99.90;;;;;;5099850;28;20040;-83
2023/09/21 06:48:10;;;;;;;2.75;1.90;;;25.10;99.90;;;;;;5090544;27;20049;-81
2023/09/21 06:50:40;;;;;;;4.75;1.83;;;25.00;99.90;;;;;;5081643;27;20032;-85
2023/09/21 06:53:07;;;;;;;3.67;1.88;;;25.00;99.90;;;;;;5104085;27;20039;-82
2023/09/21 06:55:34;;;;;;;4.00;2.30;;;25.10;99.90;;;;;;5101375;27;20076;-84
2023/09/21 06:58:00;;;;;;;3.30;1.60;;;25.10;99.90;;;;;;5115254;27;20066;-81
2023/09/21 07:00:26;;;;;;;3.10;1.95;;;25.10;99.90;;;;;;5111013;27;20042;-83
2023/09/21 07:02:53;;;;;;;2.85;1.95;;;25.00;99.90;;;;;;5109122;27;20036;-82
2023/09/21 07:05:19;;;;;;;4.43;2.08;;;24.90;99.90;;;;;;5073937;27;20410;-83
2023/09/21 07:07:46;;;;;;;3.03;2.00;;;24.80;99.90;;;;;;5090891;27;20110;-83
2023/09/21 07:10:11;;;;;;;2.53;1.88;;;24.70;99.90;;;;;;5086596;27;20164;-81
2023/09/21 07:12:39;;;;;;;3.45;2.38;;;24.70;99.90;;;;;;5094504;27;20043;-84
2023/09/21 07:15:10;;;;;;;4.13;2.10;;;24.70;99.90;;;;;;5079281;28;20043;-82
2023/09/21 07:18:05;;;;;;;;;;;;;;;;;;;;;
2023/09/21 07:20:59;;;;;;;2.72;1.80;;;24.70;99.90;;;;;;5070234;28;20075;-89
2023/09/21 07:23:56;;;;;;;3.33;2.28;;;24.50;99.90;;;;;;5087010;28;20044;-85
2023/09/21 07:26:22;;;;;;;3.65;2.00;;;24.40;99.90;;;;;;5048657;28;20055;-87
2023/09/21 07:28:48;;;;;;;4.07;2.20;;;24.40;99.90;;;;;;5070600;28;20035;-84
2023/09/21 07:31:23;;;;;;;3.10;2.60;;;24.40;99.90;;;;;;5079721;28;20587;-88
2023/09/21 07:33:52;;;;;;;4.45;2.42;;;24.50;99.90;;;;;;5096265;28;20027;-86
2023/09/21 07:36:17;;;;;;;3.67;2.28;;;24.40;99.90;;;;;;5059971;28;20181;-84
2023/09/21 07:38:43;;;;;;;2.70;2.30;;;24.40;99.90;;;;;;5076405;28;20044;-86
2023/09/21 07:41:09;;;;;;;3.63;2.10;;;24.40;99.90;;;;;;5079701;28;20043;-84
2023/09/21 07:43:36;;;;;;;3.00;1.83;;;24.40;99.90;;;;;;5062976;28;20062;-86
2023/09/21 07:46:02;;;;;;;5.53;2.22;;;24.40;99.90;;;;;;5063150;28;20754;-84
2023/09/21 07:48:29;;;;;;;4.20;2.85;;;24.40;99.90;;;;;;5059137;28;20135;-85
2023/09/21 07:51:03;;;;;;;4.22;2.42;;;24.40;99.90;;;;;;5076132;28;20089;-84
2023/09/21 07:53:32;;;;;;;5.35;2.47;;;24.10;99.90;;;;;;5059422;28;20119;-83
2023/09/21 07:56:04;;;;;;;3.67;2.15;;;24.40;99.90;;;;;;5072015;28;20114;-84
2023/09/21 07:58:30;;;;;;;3.17;2.42;;;24.40;99.90;;;;;;5075794;28;20040;-84
2023/09/21 08:00:56;;;;;;;2.88;2.17;;;24.40;99.90;;;;;;5058626;28;20036;-83
2023/09/21 08:03:26;;;;;;;2.75;1.73;;;24.40;99.90;;;;;;5074748;28;20402;-85
2023/09/21 08:05:55;;;;;;;3.28;2.47;;;24.30;99.90;;;;;;5057984;28;20087;-84
2023/09/21 08:08:22;;;;;;;3.08;2.20;;;24.30;99.90;;;;;;5058061;28;20129;-83
2023/09/21 08:10:50;;;;;;;3.50;2.42;;;24.20;99.90;;;;;;5086814;28;20072;-84
2023/09/21 08:13:16;;;;;;;4.53;2.50;;;24.20;99.90;;;;;;5057215;28;20036;-82
2023/09/21 08:15:42;;;;;;;2.92;2.45;;;24.10;99.90;;;;;;5074374;28;20043;-83
2023/09/21 08:18:10;;;;;;;3.88;2.38;;;24.10;99.90;;;;;;5074939;28;20375;-83
2023/09/21 08:20:42;;;;;;;3.33;2.53;;;24.10;99.90;;;;;;5108407;27;20059;-82
2023/09/21 08:23:08;;;;;;;4.00;2.63;;;24.10;99.90;;;;;;5084307;28;20040;-84
2023/09/21 08:25:36;;;;;;;4.97;2.97;;;23.80;99.90;;;;;;5092405;28;20108;-83
2023/09/21 08:28:05;;;;;;;3.80;2.30;;;24.00;99.90;;;;;;5094902;28;20043;-84
2023/09/21 08:30:38;;;;;;;3.63;2.47;;;24.00;99.90;;;;;;5063854;28;20036;-85
2023/09/21 08:33:07;;;;;;;4.63;2.70;;;24.00;99.90;;;;;;5075674;28;20090;-85
2023/09/21 08:35:34;;;;;;;5.07;2.70;;;23.90;99.90;;;;;;5094327;28;20372;-81
2023/09/21 08:37:59;;;;;;;4.88;2.55;;;23.90;99.90;;;;;;5060972;28;20111;-84
2023/09/21 08:40:26;;;;;;;5.35;3.10;;;23.50;99.90;;;;;;5059895;28;20127;-82
2023/09/21 08:42:53;;;;;;;4.22;2.40;;;23.80;99.90;;;;;;5076909;28;20065;-84
2023/09/21 08:45:22;;;;;;;5.20;2.67;;;23.80;99.90;;;;;;5094239;28;20134;-83
2023/09/21 08:47:49;;;;;;;3.33;2.47;;;23.90;99.90;;;;;;5080644;27;20074;-83
2023/09/21 08:50:16;;;;;;;5.45;2.60;;;23.80;99.90;;;;;;5114511;27;20081;-83
2023/09/21 08:52:44;;;;;;;5.07;2.63;;;23.90;99.90;;;;;;5096766;28;20056;-84
2023/09/21 08:55:12;;;;;;;3.00;2.50;;;23.80;99.90;;;;;;5073481;28;20126;-83
2023/09/21 08:57:38;;;;;;;3.53;2.47;;;23.80;99.90;;;;;;5088670;28;20459;-83
2023/09/21 09:00:11;;;;;;;4.65;3.00;;;23.80;99.90;;;;;;5064968;28;20035;-83
2023/09/21 09:02:37;;;;;;;4.77;2.93;;;23.80;99.90;;;;;;5090936;28;20065;-83
2023/09/21 09:05:07;;;;;;;4.05;3.13;;;23.80;99.90;;;;;;5077051;28;20881;-82
2023/09/21 09:07:41;;;;;;;4.18;3.08;;;23.80;99.90;;;;;;5095661;28;20519;-83
2023/09/21 09:10:11;;;;;;;4.13;3.00;;;23.80;99.90;;;;;;5079628;28;20044;-84
2023/09/21 09:12:39;;;;;;;5.50;3.05;;;23.80;99.90;;;;;;5075082;28;20047;-84
2023/09/21 09:15:08;;;;;;;6.00;3.40;;;23.70;99.90;;;;;;5077252;28;20038;-84
2023/09/21 09:17:35;;;;;;;5.40;3.40;;;23.70;99.90;;;;;;5078425;28;20575;-82
2023/09/21 09:20:03;;;;;;;5.45;3.22;;;23.70;99.90;;;;;;5087641;28;20511;-82
2023/09/21 09:22:31;;;;;;;5.68;3.50;;;23.70;99.90;;;;;;5062664;28;20039;-83
2023/09/21 09:25:10;;;;;;;3.97;3.05;;;23.70;99.90;;;;;;5095209;28;20055;-81
2023/09/21 09:27:38;;;;;;;4.82;3.63;;;23.80;99.90;;;;;;5095565;28;20499;-81
2023/09/21 09:30:08;;;;;;;7.80;3.40;;;23.80;99.90;;;;;;5097705;27;20122;-81
2023/09/21 09:32:40;;;;;;;4.78;3.60;;;23.70;99.90;;;;;;5112823;27;20045;-82
2023/09/21 09:35:12;;;;;;;4.53;3.38;;;23.70;99.90;;;;;;5090764;27;20477;-80
2023/09/21 09:37:42;;;;;;;4.40;3.30;;;23.60;99.90;;;;;;5094494;27;20043;-80
2023/09/21 09:40:10;;;;;;;4.63;3.78;;;23.60;99.90;;;;;;5110614;27;20039;-83
2023/09/21 09:42:43;;;;;;;4.30;3.42;;;23.60;99.90;;;;;;5110255;28;20499;-82
2023/09/21 09:45:32;;;;;;;4.90;3.40;;;23.60;99.90;;;;;;5093669;27;20041;-83
2023/09/21 09:48:02;;;;;;;7.10;3.78;;;23.60;99.90;;;;;;5114451;27;20058;-83
2023/09/21 09:50:33;;;;;;;3.97;2.40;;;23.50;99.90;;;;;;5064581;27;20047;-81
2023/09/21 09:53:07;;;;;;;3.53;1.30;;;23.40;99.90;;;;;;5113986;27;20065;-80
2023/09/21 09:55:36;;;;;;;2.17;1.10;;;23.00;99.90;;;;;;5091399;27;20053;-80
2023/09/21 09:58:08;;;;;;;1.63;1.00;;;22.80;99.90;;;;;;5095638;27;20137;-80
2023/09/21 10:00:35;;;;;;;3.05;1.20;;;22.60;99.90;;;;;;5112345;27;20050;-80
2023/09/21 10:03:03;;;;;;;1.85;1.10;;;22.50;99.90;;;;;;5109259;27;20039;-79
2023/09/21 10:05:30;;;;;;;2.90;1.20;;;22.60;99.90;;;;;;5108188;27;20047;-80
2023/09/21 10:08:01;;;;;;;2.20;1.20;;;22.50;99.90;;;;;;5086951;28;20126;-79
2023/09/21 10:10:32;;;;;;;3.13;1.40;;;22.50;99.90;;;;;;5091310;27;20402;-80
2023/09/21 10:12:58;;;;;;;2.60;1.20;;;22.50;99.90;;;;;;5116289;27;20039;-79
2023/09/21 10:15:26;;;;;;;1.98;0.85;;;22.50;99.90;;;;;;5094854;27;20119;-80
2023/09/21 10:17:55;;;;;;;1.50;0.90;;;22.50;99.90;;;;;;5105584;27;20039;-84
2023/09/21 10:20:34;;;;;;;3.08;1.13;;;22.50;99.90;;;;;;5112504;27;20138;-81
2023/09/21 10:23:04;;;;;;;2.22;1.15;;;22.50;99.90;;;;;;5097024;27;20047;-81
2023/09/21 10:25:41;;;;;;;2.65;0.90;;;22.40;99.90;;;;;;5091770;27;20074;-79
2023/09/21 10:28:28;;;;;;;1.30;0.85;;;22.40;99.90;;;;;;5100418;27;20449;-79
2023/09/21 10:31:25;;;;;;;1.23;0.80;;;22.40;99.90;;;;;;5102634;27;20043;-80
2023/09/21 10:33:51;;;;;;;1.00;0.90;;;22.30;99.90;;;;;;5103047;27;20510;-80
2023/09/21 10:36:50;;;;;;;1.60;0.82;;;22.30;99.90;;;;;;5111244;27;20536;-80
2023/09/21 10:39:30;;;;;;;3.15;0.98;;;22.40;99.90;;;;;;5101811;27;20044;-80
2023/09/21 10:42:03;;;;;;;3.03;1.17;;;22.50;99.90;;;;;;5064148;27;21674;-79
2023/09/21 10:45:03;;;;;;;1.63;1.15;;;22.40;99.90;;;;;;5078670;27;20054;-79
2023/09/21 10:47:44;;;;;;;2.17;1.10;;;22.40;99.90;;;;;;5098554;27;20035;-81
2023/09/21 10:50:30;;;;;;;1.13;1.02;;;22.30;99.90;;;;;;5101715;27;20057;-81
2023/09/21 10:52:57;;;;;;;1.45;1.00;;;22.40;99.90;;;;;;5107329;27;20071;-83
2023/09/21 10:55:23;;;;;;;1.30;1.10;;;22.40;99.90;;;;;;5058432;27;20380;-80
2023/09/21 10:57:52;;;;;;;1.50;1.20;;;22.40;99.90;;;;;;5081589;27;20039;-80
2023/09/21 11:00:25;;;;;;;1.30;1.10;;;22.30;99.90;;;;;;5076741;27;20104;-83
2023/09/21 11:02:53;;;;;;;1.57;1.00;;;22.40;99.90;;;;;;5101924;27;20036;-82
2023/09/21 11:05:21;;;;;;;1.63;1.08;;;22.40;99.90;;;;;;5106669;27;20043;-81
2023/09/21 11:07:48;;;;;;;2.20;1.23;;;22.40;99.90;;;;;;5068499;27;20817;-82
2023/09/21 11:10:15;;;;;;;1.40;1.10;;;22.40;99.90;;;;;;5089379;27;20140;-79
2023/09/21 11:12:41;;;;;;;1.42;1.10;;;22.60;99.90;;;;;;5091982;27;20383;-81
2023/09/21 11:15:12;;;;;;;1.27;1.05;;;22.70;99.90;;;;;;5111901;27;20472;-80
2023/09/21 11:17:43;;;;;;;1.95;1.17;;;22.70;99.90;;;;;;5090476;27;20042;-81
2023/09/21 11:20:20;;;;;;;2.17;1.30;;;22.80;99.90;;;;;;5091865;27;20047;-85
2023/09/21 11:22:49;;;;;;;2.78;1.20;;;22.50;99.90;;;;;;5086146;27;20035;-81
2023/09/21 11:25:21;;;;;;;1.50;1.17;;;22.70;99.90;;;;;;5112788;27;20043;-81
2023/09/21 11:27:47;;;;;;;1.98;1.20;;;22.80;99.90;;;;;;5086089;27;20050;-81
2023/09/21 11:30:13;;;;;;;1.77;1.10;;;22.80;99.90;;;;;;5078856;27;20035;-79
2023/09/21 11:32:45;;;;;;;1.00;0.88;;;22.80;99.90;;;;;;5108224;27;20468;-79
2023/09/21 11:35:14;;;;;;;1.67;1.08;;;22.80;99.90;;;;;;5093867;28;20031;-82
2023/09/21 11:37:41;;;;;;;1.38;1.00;;;22.70;99.90;;;;;;5081308;28;20062;-80
2023/09/21 11:40:12;;;;;;;1.10;0.90;;;22.80;99.90;;;;;;5072738;28;20177;-82
2023/09/21 11:42:43;;;;;;;1.73;1.02;;;22.60;99.90;;;;;;5106276;27;20038;-80
2023/09/21 11:45:19;;;;;;;2.03;1.55;;;22.70;99.90;;;;;;5090556;28;20054;-80
2023/09/21 11:48:03;;;;;;;3.00;1.10;;;22.70;99.90;;;;;;5101038;28;20039;-81
2023/09/21 11:50:35;;;;;;;3.70;1.17;;;22.80;99.90;;;;;;5074643;28;20131;-79
2023/09/21 11:53:07;;;;;;;1.17;1.08;;;22.80;99.90;;;;;;5057610;28;20387;-80
2023/09/21 11:55:33;;;;;;;2.25;1.58;;;22.80;99.90;;;;;;5104071;28;20151;-79
2023/09/21 11:58:13;;;;;;;2.17;1.40;;;23.00;99.90;;;;;;5090015;27;20510;-82
2023/09/21 12:00:45;;;;;;;2.03;1.20;;;22.90;99.90;;;;;;5085430;28;20260;-80
2023/09/21 12:03:15;;;;;;;1.55;1.10;;;22.90;99.90;;;;;;5099441;28;20184;-80
2023/09/21 12:05:45;;;;;;;1.70;1.42;;;22.90;99.90;;;;;;5082137;27;20044;-81
2023/09/21 12:08:14;;;;;;;2.05;1.30;;;22.90;99.90;;;;;;5076933;27;20044;-81
2023/09/21 12:10:47;;;;;;;1.45;1.10;;;22.80;99.90;;;;;;5082234;27;20731;-80
2023/09/21 12:13:17;;;;;;;2.67;1.40;;;22.80;99.90;;;;;;5078029;27;20057;-79
2023/09/21 12:15:43;;;;;;;3.78;1.65;;;22.70;99.90;;;;;;5079762;28;20078;-82
2023/09/21 12:18:10;;;;;;;2.58;1.60;;;22.70;99.90;;;;;;5098966;27;20035;-83
2023/09/21 12:20:45;;;;;;;2.33;1.20;;;22.80;99.90;;;;;;5096275;28;20059;-79
2023/09/21 12:23:12;;;;;;;;;;;22.80;99.90;;;;;;5089263;28;20395;-81
2023/09/21 12:25:41;;;;;;;1.52;1.20;;;22.80;99.90;;;;;;5081972;27;20699;-82
2023/09/21 12:28:09;;;;;;;1.65;1.20;;;22.70;99.90;;;;;;5082303;27;20070;-82
2023/09/21 12:30:37;;;;;;;2.53;1.25;;;22.70;99.90;;;;;;5094866;28;20028;-85
2023/09/21 12:33:06;;;;;;;1.98;1.20;;;22.70;99.90;;;;;;5071530;27;20036;-80
2023/09/21 12:35:32;;;;;;;2.70;1.38;;;22.70;99.90;;;;;;5105059;28;20530;-82
2023/09/21 12:37:58;;;;;;;1.60;1.30;;;22.80;99.90;;;;;;5068341;28;20039;-82
2023/09/21 12:40:24;;;;;;;1.98;1.00;;;22.90;99.90;;;;;;5082018;28;20531;-82
2023/09/21 12:42:52;;;;;;;2.45;1.23;;;22.80;99.90;;;;;;5102605;28;20111;-79
2023/09/21 12:45:18;;;;;;;1.38;1.02;;;22.90;99.90;;;;;;5054807;28;20055;-82
2023/09/21 12:47:46;;;;;;;1.25;1.00;;;22.90;99.90;;;;;;5074770;28;20035;-82
2023/09/21 12:50:15;;;;;;;1.52;1.02;;;23.00;99.90;;;;;;5091605;28;20044;-83
2023/09/21 12:52:42;;;;;;;3.38;1.20;;;23.00;99.90;;;;;;5065656;28;20067;-77
2023/09/21 12:55:09;;;;;;;1.30;1.17;;;23.10;99.90;;;;;;5081719;28;20043;-82
2023/09/21 12:57:41;;;;;;;1.10;0.98;;;23.20;99.90;;;;;;5075135;28;20027;-82
2023/09/21 13:00:18;;;;;;;1.88;1.20;;;23.20;99.90;;;;;;5058773;28;20043;-81
2023/09/21 13:02:45;;;;;;;3.08;1.25;;;23.20;99.90;;;;;;5078069;28;20061;-82